Time;durP1;ratioP1;P1;durP2;ratioP2;P2;SDS_P1;SDS_P2;PMS_P1;PMS_P2;Temp;Humidity;BMP_temperature;BMP_pressure;BME280_temperature;BME280_humidity;BME280_pressure;Samples;Min_cycle;Max_cycle;Signal;HPM_P1;HPM_P2
2021/01/22 00:02:03;;;;;;;205.20;109.93;;;3.20;99.90;;;;;;6129506;23;20010;-85
2021/01/22 00:04:30;;;;;;;209.25;112.53;;;3.30;99.90;;;;;;6128090;23;20005;-87
2021/01/22 00:06:56;;;;;;;200.05;107.40;;;3.30;99.90;;;;;;6156002;23;20424;-83
2021/01/22 00:09:22;;;;;;;214.02;114.72;;;3.20;99.90;;;;;;6156438;23;20016;-85
2021/01/22 00:11:48;;;;;;;217.93;112.95;;;3.10;99.90;;;;;;6155987;23;20017;-84
2021/01/22 00:14:15;;;;;;;223.38;115.53;;;2.90;99.90;;;;;;6156548;23;20056;-88
2021/01/22 00:16:41;;;;;;;211.98;109.90;;;3.10;99.90;;;;;;6159198;23;20012;-92
2021/01/22 00:19:07;;;;;;;206.13;113.80;;;3.10;99.90;;;;;;6132038;23;20088;-91
2021/01/22 00:21:36;;;;;;;198.07;110.32;;;2.70;99.90;;;;;;6158370;23;20002;-89
2021/01/22 00:24:03;;;;;;;218.20;115.60;;;2.70;99.90;;;;;;6132945;23;20230;-94
2021/01/22 00:26:29;;;;;;;220.35;116.95;;;3.00;99.90;;;;;;6160780;23;20025;-90
2021/01/22 00:28:54;;;;;;;221.23;116.68;;;3.20;99.90;;;;;;6134063;23;20069;-87
2021/01/22 00:31:20;;;;;;;231.68;122.28;;;3.30;99.90;;;;;;6132557;23;20006;-82
2021/01/22 00:33:46;;;;;;;218.55;118.90;;;3.20;99.90;;;;;;6156471;23;20006;-86
2021/01/22 00:36:12;;;;;;;228.45;120.10;;;3.00;99.90;;;;;;6129213;23;20075;-82
2021/01/22 00:38:38;;;;;;;218.02;117.13;;;2.80;99.90;;;;;;6156092;23;20069;-79
2021/01/22 00:41:03;;;;;;;220.48;119.35;;;3.00;99.90;;;;;;6156042;23;20034;-82
2021/01/22 00:43:29;;;;;;;207.90;111.93;;;3.20;99.90;;;;;;6129104;23;19998;-86
2021/01/22 00:45:55;;;;;;;205.75;111.72;;;3.00;99.90;;;;;;6155848;23;20076;-86
2021/01/22 00:51:43;;;;;;;209.00;112.38;;;3.10;99.90;;;;;;6138910;23;20045;-86
2021/01/22 00:54:09;;;;;;;220.38;114.50;;;2.90;99.90;;;;;;6103471;23;20080;-84
2021/01/22 00:56:34;;;;;;;219.98;115.88;;;3.10;99.90;;;;;;6129705;23;20005;-90
2021/01/22 00:59:00;;;;;;;210.02;110.85;;;2.90;99.90;;;;;;6118279;23;20040;-92
2021/01/22 01:01:26;;;;;;;200.50;109.43;;;2.70;99.90;;;;;;6133303;23;20025;-89
2021/01/22 01:03:52;;;;;;;198.48;105.30;;;2.80;99.90;;;;;;6157726;23;20000;-89
2021/01/22 01:06:17;;;;;;;193.02;105.70;;;2.70;99.90;;;;;;6157528;23;19997;-87
2021/01/22 01:08:43;;;;;;;194.68;105.88;;;2.60;99.90;;;;;;6156084;23;20084;-89
2021/01/22 01:11:09;;;;;;;213.50;108.63;;;2.70;99.90;;;;;;6156602;23;20040;-87
2021/01/22 01:13:35;;;;;;;200.90;107.93;;;3.00;99.90;;;;;;6132643;23;20005;-88
2021/01/22 01:16:00;;;;;;;204.30;110.68;;;3.00;99.90;;;;;;6157419;23;19998;-85
2021/01/22 01:18:26;;;;;;;220.07;113.25;;;2.90;99.90;;;;;;6157512;23;20604;-90
2021/01/22 01:20:53;;;;;;;208.02;114.68;;;3.10;99.90;;;;;;6158182;23;20037;-88
2021/01/22 01:23:20;;;;;;;208.93;113.65;;;2.90;99.90;;;;;;6132703;23;20006;-90
2021/01/22 01:25:48;;;;;;;215.77;116.43;;;2.80;99.90;;;;;;6157324;23;20001;-91
2021/01/22 01:28:14;;;;;;;220.05;113.68;;;2.70;99.90;;;;;;6131765;23;20029;-85
2021/01/22 01:30:47;;;;;;;197.80;112.15;;;2.60;99.90;;;;;;6130620;23;20072;-90
2021/01/22 01:33:13;;;;;;;220.30;113.50;;;2.60;99.90;;;;;;6155423;23;20024;-85
2021/01/22 01:35:39;;;;;;;213.00;115.93;;;2.80;99.90;;;;;;6128815;23;20379;-86
2021/01/22 01:38:05;;;;;;;213.95;112.30;;;2.90;99.90;;;;;;6158058;23;20060;-85
2021/01/22 01:40:31;;;;;;;188.55;103.35;;;3.00;99.90;;;;;;6157385;23;20182;-86
2021/01/22 01:43:20;;;;;;;188.15;105.05;;;2.70;99.90;;;;;;6132807;23;20021;-82
2021/01/22 01:45:45;;;;;;;185.38;100.75;;;2.80;99.90;;;;;;6132348;23;20435;-85
2021/01/22 01:48:11;;;;;;;182.90;99.93;;;2.90;99.90;;;;;;6132292;23;20009;-84
2021/01/22 01:50:38;;;;;;;176.50;94.95;;;2.90;99.90;;;;;;6158373;23;20001;-82
2021/01/22 01:53:06;;;;;;;149.60;80.93;;;2.80;99.90;;;;;;6132852;23;20025;-84
2021/01/22 01:55:32;;;;;;;146.75;82.68;;;2.60;99.90;;;;;;6132418;23;20005;-86
2021/01/22 01:58:00;;;;;;;167.10;89.43;;;2.80;99.90;;;;;;6132407;23;20012;-86
2021/01/22 02:00:27;;;;;;;167.98;87.07;;;2.90;99.90;;;;;;6131584;23;20044;-85
2021/01/22 02:02:52;;;;;;;142.55;77.38;;;2.70;99.90;;;;;;6131179;23;20367;-87
2021/01/22 02:05:18;;;;;;;143.90;79.57;;;2.30;99.90;;;;;;6132309;23;20470;-85
2021/01/22 02:07:44;;;;;;;143.68;76.30;;;2.50;99.90;;;;;;6159416;23;20036;-84
2021/01/22 02:10:11;;;;;;;131.93;70.85;;;2.60;99.90;;;;;;6133450;23;20002;-87
2021/01/22 02:12:38;;;;;;;123.97;69.20;;;2.80;99.90;;;;;;6159189;23;20013;-85
2021/01/22 02:15:06;;;;;;;122.75;69.30;;;2.80;99.90;;;;;;6131909;23;20002;-87
2021/01/22 02:17:32;;;;;;;130.68;73.03;;;2.80;99.90;;;;;;6159543;23;20314;-84
2021/01/22 02:20:17;;;;;;;122.15;65.03;;;3.00;99.90;;;;;;6158892;23;20017;-89
2021/01/22 02:22:43;;;;;;;121.32;65.93;;;3.10;99.90;;;;;;6132962;23;20025;-86
2021/01/22 02:25:11;;;;;;;124.40;62.70;;;2.90;99.90;;;;;;6132450;23;20289;-85
2021/01/22 02:27:38;;;;;;;125.60;68.95;;;2.90;99.90;;;;;;6159398;23;20005;-87
2021/01/22 02:30:06;;;;;;;115.38;63.17;;;3.00;99.90;;;;;;6158973;23;20002;-85
2021/01/22 02:32:36;;;;;;;114.15;61.17;;;3.10;99.90;;;;;;6133637;23;20006;-89
2021/01/22 02:35:09;;;;;;;102.03;58.28;;;3.20;99.90;;;;;;6158237;23;20033;-88
2021/01/22 02:37:36;;;;;;;98.75;55.05;;;3.10;99.90;;;;;;6159643;23;20289;-91
2021/01/22 02:40:07;;;;;;;107.05;59.47;;;3.10;99.90;;;;;;6160497;23;19997;-88
2021/01/22 02:42:33;;;;;;;101.70;55.65;;;3.00;99.90;;;;;;6159861;23;20025;-85
2021/01/22 02:44:59;;;;;;;94.82;52.40;;;3.00;99.90;;;;;;6132856;23;20132;-87
2021/01/22 02:47:26;;;;;;;97.97;53.40;;;2.50;99.90;;;;;;6159182;23;19997;-90
2021/01/22 02:49:52;;;;;;;99.10;54.30;;;2.70;99.90;;;;;;6158800;23;20009;-85
2021/01/22 02:52:19;;;;;;;102.65;55.10;;;2.50;99.90;;;;;;6134274;23;20014;-88
2021/01/22 02:54:51;;;;;;;93.50;53.28;;;2.60;99.90;;;;;;6137304;23;20459;-86
2021/01/22 02:57:37;;;;;;;106.10;56.08;;;2.80;99.90;;;;;;6163104;23;20040;-91
2021/01/22 03:00:09;;;;;;;102.90;56.25;;;2.70;99.90;;;;;;6161430;23;20058;-83
2021/01/22 03:02:44;;;;;;;101.90;57.65;;;2.90;99.90;;;;;;6161182;23;20001;-93
2021/01/22 03:05:13;;;;;;;99.13;54.30;;;3.00;99.90;;;;;;6160643;23;20124;-92
2021/01/22 03:08:17;;;;;;;111.43;55.53;;;3.00;99.90;;;;;;6161149;23;20001;-87
2021/01/22 03:10:46;;;;;;;107.55;54.40;;;2.90;99.90;;;;;;6103235;23;20073;-88
2021/01/22 03:13:13;;;;;;;97.88;54.55;;;2.90;99.90;;;;;;6133486;23;20010;-87
2021/01/22 03:15:40;;;;;;;99.15;53.25;;;3.00;99.90;;;;;;6132222;23;20085;-85
2021/01/22 03:18:13;;;;;;;98.80;55.15;;;3.00;99.90;;;;;;6133392;23;20008;-87
2021/01/22 03:20:41;;;;;;;99.28;53.60;;;3.10;99.90;;;;;;6131844;23;19997;-83
2021/01/22 03:23:07;;;;;;;95.38;55.28;;;3.10;99.90;;;;;;6157788;23;20007;-84
2021/01/22 03:25:33;;;;;;;100.28;55.53;;;3.10;99.90;;;;;;6157520;23;20001;-85
2021/01/22 03:27:58;;;;;;;101.70;54.00;;;3.20;99.90;;;;;;6131725;23;20005;-88
2021/01/22 03:30:24;;;;;;;96.80;54.17;;;3.20;99.90;;;;;;6157921;23;20002;-85
2021/01/22 03:32:50;;;;;;;103.15;54.55;;;3.10;99.90;;;;;;6130507;23;20001;-84
2021/01/22 03:35:17;;;;;;;107.15;56.60;;;3.10;99.90;;;;;;6129349;23;20001;-85
2021/01/22 03:37:43;;;;;;;109.90;59.25;;;2.90;99.90;;;;;;6156028;23;20000;-83
2021/01/22 03:40:09;;;;;;;108.63;59.80;;;3.00;99.90;;;;;;6155464;23;19998;-83
2021/01/22 03:42:36;;;;;;;108.93;60.25;;;3.00;99.90;;;;;;6155840;23;20060;-87
2021/01/22 03:45:03;;;;;;;102.95;61.28;;;3.00;99.90;;;;;;6156383;23;20024;-80
2021/01/22 03:47:28;;;;;;;109.50;59.28;;;3.00;99.90;;;;;;6129329;23;19994;-86
2021/01/22 03:49:54;;;;;;;105.82;59.85;;;2.70;99.90;;;;;;6156205;23;20012;-85
2021/01/22 03:52:20;;;;;;;117.00;62.63;;;2.80;99.90;;;;;;6156017;23;20088;-85
2021/01/22 03:54:46;;;;;;;108.40;60.97;;;2.90;99.90;;;;;;6156285;23;19993;-87
2021/01/22 03:57:12;;;;;;;111.47;60.63;;;2.70;99.90;;;;;;6130288;23;20052;-86
2021/01/22 03:59:37;;;;;;;114.70;59.83;;;2.80;99.90;;;;;;6156329;23;20312;-86
2021/01/22 04:02:03;;;;;;;111.95;60.15;;;2.90;99.90;;;;;;6130269;23;20001;-84
2021/01/22 04:04:29;;;;;;;110.97;62.15;;;2.90;99.90;;;;;;6156458;23;20001;-88
2021/01/22 04:06:54;;;;;;;111.47;61.78;;;3.00;99.90;;;;;;6155279;23;20034;-84
2021/01/22 04:09:20;;;;;;;115.05;64.45;;;3.00;99.90;;;;;;6156966;23;20315;-81
2021/01/22 04:11:46;;;;;;;117.15;64.13;;;3.10;99.90;;;;;;6129825;23;20012;-88
2021/01/22 04:14:11;;;;;;;114.82;61.03;;;3.10;99.90;;;;;;6131144;23;20096;-81
2021/01/22 04:16:37;;;;;;;112.65;61.92;;;3.00;99.90;;;;;;6128576;23;20038;-86
2021/01/22 04:19:03;;;;;;;108.45;59.92;;;3.00;99.90;;;;;;6158035;23;20021;-83
2021/01/22 04:21:29;;;;;;;111.05;60.28;;;3.00;99.90;;;;;;6158246;23;20017;-89
2021/01/22 04:23:54;;;;;;;102.05;58.38;;;3.00;99.90;;;;;;6157121;23;20096;-89
2021/01/22 04:26:20;;;;;;;107.50;58.90;;;2.80;99.90;;;;;;6158484;23;20005;-86
2021/01/22 04:28:46;;;;;;;108.85;56.83;;;2.80;99.90;;;;;;6132245;23;20048;-88
2021/01/22 04:31:12;;;;;;;103.82;58.22;;;2.90;99.90;;;;;;6131557;23;20396;-88
2021/01/22 04:33:37;;;;;;;103.65;58.90;;;2.90;99.90;;;;;;6158743;23;20005;-88
2021/01/22 04:36:03;;;;;;;99.53;56.28;;;2.90;99.90;;;;;;6156661;23;20004;-87
2021/01/22 04:38:29;;;;;;;102.18;54.55;;;2.90;99.90;;;;;;6156940;23;20032;-82
2021/01/22 04:40:57;;;;;;;91.38;54.50;;;3.00;99.90;;;;;;6156609;23;20005;-85
2021/01/22 04:43:23;;;;;;;98.65;55.13;;;2.90;99.90;;;;;;6155996;23;20001;-84
2021/01/22 04:45:49;;;;;;;102.50;57.38;;;2.90;99.90;;;;;;6129789;23;20093;-86
2021/01/22 04:48:15;;;;;;;104.35;57.20;;;3.00;99.90;;;;;;6157015;23;20026;-84
2021/01/22 04:50:41;;;;;;;101.07;52.40;;;3.00;99.90;;;;;;6130466;23;20292;-88
2021/01/22 04:53:11;;;;;;;99.10;54.88;;;3.00;99.90;;;;;;6130418;23;20005;-89
2021/01/22 04:55:43;;;;;;;90.82;53.22;;;3.00;99.90;;;;;;6132660;23;20009;-87
2021/01/22 04:58:12;;;;;;;97.22;54.25;;;2.90;99.90;;;;;;6131733;23;19997;-88
2021/01/22 05:00:39;;;;;;;89.82;51.05;;;2.90;99.90;;;;;;6131421;23;20001;-90
2021/01/22 05:03:06;;;;;;;94.32;50.70;;;2.90;99.90;;;;;;6131130;23;19994;-89
2021/01/22 05:05:31;;;;;;;105.18;53.55;;;3.00;99.90;;;;;;6132044;23;20005;-88
2021/01/22 05:07:57;;;;;;;100.18;51.50;;;2.80;99.90;;;;;;6157217;23;19997;-83
2021/01/22 05:10:23;;;;;;;83.55;51.38;;;2.90;99.90;;;;;;6157604;23;19998;-84
2021/01/22 05:12:49;;;;;;;98.53;54.65;;;2.90;99.90;;;;;;6132601;23;20063;-92
2021/01/22 05:15:19;;;;;;;97.53;54.22;;;2.80;99.90;;;;;;6160825;23;20552;-82
2021/01/22 05:17:59;;;;;;;91.30;51.28;;;2.60;99.90;;;;;;6133160;23;20416;-84
2021/01/22 05:20:34;;;;;;;89.93;51.38;;;2.80;99.90;;;;;;6135454;23;20088;-84
2021/01/22 05:23:02;;;;;;;88.43;50.17;;;2.90;99.90;;;;;;6159741;23;20005;-84
2021/01/22 05:25:28;;;;;;;90.43;50.25;;;2.90;99.90;;;;;;6133886;23;20312;-90
2021/01/22 05:27:55;;;;;;;89.90;48.75;;;3.00;99.90;;;;;;6159493;23;20005;-81
2021/01/22 05:30:26;;;;;;;92.88;49.25;;;3.00;99.90;;;;;;6134275;23;20439;-84
2021/01/22 05:32:53;;;;;;;88.90;50.20;;;3.00;99.90;;;;;;6132576;23;20363;-83
2021/01/22 05:35:29;;;;;;;96.03;49.97;;;2.80;99.90;;;;;;6159503;23;20002;-83
2021/01/22 05:37:55;;;;;;;91.15;49.97;;;2.60;99.90;;;;;;6159225;23;20285;-85
2021/01/22 05:40:22;;;;;;;85.57;49.10;;;2.70;99.90;;;;;;6133015;23;20447;-83
2021/01/22 05:42:56;;;;;;;95.30;52.42;;;2.80;99.90;;;;;;6133586;23;20002;-90
2021/01/22 05:45:43;;;;;;;98.93;53.80;;;2.30;99.90;;;;;;6159507;23;20017;-90
2021/01/22 05:48:28;;;;;;;101.20;53.05;;;2.50;99.90;;;;;;6153622;23;20089;-85
2021/01/22 05:50:58;;;;;;;98.32;53.88;;;2.60;99.90;;;;;;6159117;23;20004;-87
2021/01/22 05:53:25;;;;;;;102.43;56.83;;;2.80;99.90;;;;;;6131804;23;20367;-86
2021/01/22 05:56:20;;;;;;;92.45;53.17;;;2.80;99.90;;;;;;6131203;23;20009;-85
2021/01/22 05:58:47;;;;;;;94.57;51.97;;;2.60;99.90;;;;;;6132240;23;19998;-86
2021/01/22 06:05:06;;;;;;;93.65;51.03;;;2.90;99.90;;;;;;6122714;23;20017;-86
2021/01/22 06:07:52;;;;;;;97.03;54.75;;;2.90;99.90;;;;;;6158255;23;20448;-83
2021/01/22 06:10:24;;;;;;;105.72;54.00;;;2.80;99.90;;;;;;6133454;23;20013;-84
2021/01/22 06:16:16;;;;;;;103.18;56.90;;;3.10;99.90;;;;;;6160055;23;20023;-85
2021/01/22 06:19:14;;;;;;;108.67;57.57;;;2.80;99.90;;;;;;6132501;23;20041;-85
2021/01/22 06:21:45;;;;;;;100.05;55.50;;;2.80;99.90;;;;;;6157936;23;20263;-81
2021/01/22 06:24:11;;;;;;;96.53;53.53;;;2.80;99.90;;;;;;6159522;23;20021;-89
2021/01/22 06:26:39;;;;;;;99.18;54.15;;;2.90;99.90;;;;;;6132213;23;20013;-84
2021/01/22 06:29:07;;;;;;;98.40;56.78;;;2.90;99.90;;;;;;6157338;23;20005;-84
2021/01/22 06:31:33;;;;;;;98.40;55.67;;;2.80;99.90;;;;;;6130889;23;20351;-84
2021/01/22 06:34:00;;;;;;;101.75;55.63;;;2.80;99.90;;;;;;6155949;23;20480;-87
2021/01/22 06:36:27;;;;;;;102.65;56.35;;;2.90;99.90;;;;;;6154251;23;20014;-81
2021/01/22 06:38:54;;;;;;;98.55;54.65;;;3.00;99.90;;;;;;6156450;23;20364;-80
2021/01/22 06:41:25;;;;;;;122.20;63.75;;;2.80;99.90;;;;;;6155703;23;20021;-85
2021/01/22 06:43:52;;;;;;;;;;;2.80;99.90;;;;;;6156171;23;20344;-82
2021/01/22 06:46:20;;;;;;;117.88;61.72;;;2.80;99.90;;;;;;6131098;23;19900;-80
2021/01/22 06:48:57;;;;;;;119.78;63.08;;;2.80;99.90;;;;;;6156374;23;20014;-83
2021/01/22 06:51:24;;;;;;;120.43;61.80;;;3.00;99.90;;;;;;6155786;23;20045;-84
2021/01/22 06:54:15;;;;;;;109.80;63.38;;;3.00;99.90;;;;;;6156347;23;20017;-87
2021/01/22 06:56:47;;;;;;;115.43;63.20;;;3.00;99.90;;;;;;6130636;23;20005;-88
2021/01/22 06:59:19;;;;;;;123.70;61.80;;;2.90;99.90;;;;;;6131014;23;20077;-85
2021/01/22 07:02:14;;;;;;;118.68;61.88;;;3.10;99.90;;;;;;6150010;23;20001;-83
2021/01/22 07:04:42;;;;;;;115.40;60.78;;;3.30;99.90;;;;;;6153976;23;19998;-84
2021/01/22 07:07:08;;;;;;;113.50;61.42;;;3.40;99.90;;;;;;6130960;23;20436;-84
2021/01/22 07:10:16;;;;;;;104.50;61.10;;;3.50;99.90;;;;;;6130995;23;20056;-85
2021/01/22 07:12:50;;;;;;;113.40;63.17;;;3.50;99.90;;;;;;6156183;23;19997;-84
2021/01/22 07:15:27;;;;;;;91.30;53.55;;;3.50;99.90;;;;;;6156031;23;20073;-90
2021/01/22 07:18:23;;;;;;;143.32;74.47;;;4.10;99.90;;;;;;6131744;23;20060;-86
2021/01/22 07:21:37;;;;;;;152.20;78.57;;;5.00;99.90;;;;;;6129895;23;20351;-86
2021/01/22 07:24:05;;;;;;;126.30;64.03;;;4.80;99.90;;;;;;6129754;23;20029;-84
2021/01/22 07:27:35;;;;;;;122.45;67.43;;;4.30;99.90;;;;;;6131052;23;20466;-87
2021/01/22 07:30:17;;;;;;;111.00;62.95;;;4.10;99.90;;;;;;6101043;23;20013;-83
2021/01/22 07:32:45;;;;;;;122.32;67.65;;;3.90;99.90;;;;;;6129512;23;20005;-82
2021/01/22 07:35:22;;;;;;;123.88;68.88;;;3.80;99.90;;;;;;6129048;23;20001;-88
2021/01/22 07:37:49;;;;;;;130.05;71.55;;;3.70;99.90;;;;;;6128166;23;20040;-84
2021/01/22 07:40:21;;;;;;;130.13;72.15;;;3.30;99.90;;;;;;6129165;23;20036;-82
2021/01/22 07:42:47;;;;;;;131.38;72.78;;;3.50;99.90;;;;;;6129677;23;20385;-88
2021/01/22 07:45:45;;;;;;;131.50;73.53;;;3.70;99.90;;;;;;6156456;23;20001;-84
2021/01/22 07:48:11;;;;;;;135.52;71.95;;;3.50;99.90;;;;;;6091494;23;20287;-86
2021/01/22 07:50:37;;;;;;;125.35;71.10;;;3.50;99.90;;;;;;6131451;23;20009;-86
2021/01/22 07:53:02;;;;;;;125.85;69.93;;;3.60;99.90;;;;;;6156912;23;20002;-84
2021/01/22 07:55:28;;;;;;;133.32;69.45;;;3.70;99.90;;;;;;6130002;23;20029;-85
2021/01/22 07:58:05;;;;;;;137.88;69.93;;;3.80;99.90;;;;;;6156108;23;20285;-87
2021/01/22 08:00:38;;;;;;;134.48;75.43;;;3.90;99.90;;;;;;6129986;23;20468;-82
2021/01/22 08:03:04;;;;;;;131.13;72.93;;;3.50;99.90;;;;;;6129088;23;20088;-82
2021/01/22 08:05:34;;;;;;;143.07;76.13;;;3.80;99.90;;;;;;6128248;23;20041;-84
2021/01/22 08:08:01;;;;;;;147.45;78.20;;;4.00;99.90;;;;;;6155416;23;20013;-82
2021/01/22 08:10:31;;;;;;;149.60;83.40;;;4.00;99.90;;;;;;6156380;23;20009;-84
2021/01/22 08:12:59;;;;;;;170.48;91.50;;;4.00;99.90;;;;;;6131608;23;20001;-83
2021/01/22 08:16:20;;;;;;;160.82;89.85;;;4.00;99.90;;;;;;6130536;23;20387;-84
2021/01/22 08:18:46;;;;;;;163.27;89.40;;;3.70;99.90;;;;;;5985462;23;20360;-86
2021/01/22 08:21:12;;;;;;;163.77;92.15;;;4.00;99.90;;;;;;6121504;23;20072;-87
2021/01/22 08:23:44;;;;;;;175.55;93.97;;;4.00;99.90;;;;;;6128758;23;20005;-85
2021/01/22 08:26:11;;;;;;;159.52;92.57;;;4.00;99.90;;;;;;6155707;23;20009;-86
2021/01/22 08:28:39;;;;;;;163.88;89.38;;;4.20;99.90;;;;;;6155681;23;20008;-83
2021/01/22 08:31:07;;;;;;;159.10;87.50;;;4.30;99.90;;;;;;6156576;23;20005;-84
2021/01/22 08:33:55;;;;;;;163.30;86.97;;;4.30;99.90;;;;;;6130538;23;20077;-84
2021/01/22 08:36:56;;;;;;;162.23;90.05;;;4.50;99.90;;;;;;6155158;23;20013;-84
2021/01/22 08:39:22;;;;;;;165.55;93.80;;;4.60;99.90;;;;;;6155264;23;20340;-86
2021/01/22 08:41:48;;;;;;;178.80;96.07;;;4.80;99.90;;;;;;6130119;23;20032;-86
2021/01/22 08:44:14;;;;;;;174.52;97.55;;;4.90;99.90;;;;;;6155901;23;20476;-83
2021/01/22 08:46:50;;;;;;;161.07;92.43;;;4.70;99.90;;;;;;6133857;23;20001;-89
2021/01/22 08:49:17;;;;;;;150.90;83.25;;;5.00;99.90;;;;;;6134006;23;20056;-87
2021/01/22 08:51:43;;;;;;;136.13;78.75;;;4.80;99.90;;;;;;6134296;23;20017;-85
2021/01/22 08:54:09;;;;;;;134.45;76.63;;;4.50;99.90;;;;;;6133275;23;20010;-87
2021/01/22 08:56:35;;;;;;;141.95;77.22;;;4.60;99.90;;;;;;6133963;23;20009;-88
2021/01/22 08:59:05;;;;;;;139.73;78.78;;;4.90;99.90;;;;;;6160008;23;20002;-84
2021/01/22 09:01:56;;;;;;;135.00;80.40;;;5.10;99.90;;;;;;6131539;23;20002;-89
2021/01/22 09:04:33;;;;;;;166.18;92.68;;;5.30;99.90;;;;;;6157199;23;20056;-85
2021/01/22 09:07:01;;;;;;;185.88;100.15;;;5.30;99.90;;;;;;6132144;23;20178;-85
2021/01/22 09:09:49;;;;;;;174.23;97.72;;;5.20;99.90;;;;;;6131919;23;20060;-86
2021/01/22 09:12:21;;;;;;;187.98;105.03;;;5.10;99.90;;;;;;6132949;23;20001;-83
2021/01/22 09:14:48;;;;;;;218.70;117.53;;;5.00;99.90;;;;;;6132016;23;20017;-89
2021/01/22 09:17:41;;;;;;;221.13;123.72;;;4.80;99.90;;;;;;6132284;23;20001;-83
2021/01/22 09:20:27;;;;;;;192.27;113.72;;;4.90;99.90;;;;;;6159715;23;20025;-87
2021/01/22 09:23:04;;;;;;;202.60;113.35;;;5.10;99.90;;;;;;6159083;23;20012;-88
2021/01/22 09:25:33;;;;;;;188.48;109.20;;;5.30;99.90;;;;;;6134779;23;19998;-86
2021/01/22 09:28:01;;;;;;;174.82;100.60;;;5.50;99.90;;;;;;6161995;23;20280;-86
2021/01/22 09:31:04;;;;;;;185.73;105.70;;;5.60;99.90;;;;;;6135240;23;20006;-85
2021/01/22 09:33:36;;;;;;;196.63;108.78;;;5.80;99.90;;;;;;6137947;23;20024;-85
2021/01/22 09:36:02;;;;;;;201.45;112.05;;;5.80;99.90;;;;;;6158960;23;20014;-85
2021/01/22 09:38:28;;;;;;;194.25;109.75;;;6.10;99.90;;;;;;6158837;23;20067;-90
2021/01/22 09:40:53;;;;;;;191.60;112.20;;;6.80;99.90;;;;;;6133912;23;20001;-84
2021/01/22 09:43:20;;;;;;;196.82;109.90;;;7.30;99.90;;;;;;6133804;23;20010;-85
2021/01/22 09:45:46;;;;;;;185.65;111.95;;;7.80;99.90;;;;;;6129992;23;20020;-81
2021/01/22 09:48:15;;;;;;;188.90;114.57;;;7.70;99.80;;;;;;6130278;23;20009;-82
2021/01/22 09:50:41;;;;;;;199.57;116.43;;;7.40;99.90;;;;;;6156506;23;20010;-83
2021/01/22 09:53:06;;;;;;;184.57;110.82;;;8.00;99.90;;;;;;6157884;23;20001;-81
2021/01/22 09:55:32;;;;;;;195.95;116.88;;;8.60;98.70;;;;;;6131506;23;20096;-81
2021/01/22 09:57:58;;;;;;;193.88;114.15;;;9.00;96.70;;;;;;6128904;23;20002;-80
2021/01/22 10:00:24;;;;;;;195.13;116.95;;;8.90;96.30;;;;;;6132440;23;20092;-87
2021/01/22 10:02:50;;;;;;;185.45;115.05;;;9.10;96.30;;;;;;6157542;23;20420;-83
2021/01/22 10:05:18;;;;;;;196.20;121.22;;;9.40;94.50;;;;;;6156230;23;20001;-84
2021/01/22 10:07:44;;;;;;;196.77;120.15;;;9.70;93.20;;;;;;6132296;23;20006;-88
2021/01/22 10:10:11;;;;;;;189.68;118.07;;;9.30;93.10;;;;;;6136256;23;20018;-90
2021/01/22 10:12:37;;;;;;;198.27;123.75;;;9.30;93.80;;;;;;6135719;23;20424;-89
2021/01/22 10:15:04;;;;;;;200.93;125.78;;;9.50;93.60;;;;;;6135491;23;20133;-89
2021/01/22 10:17:30;;;;;;;202.60;123.88;;;9.60;92.80;;;;;;6134722;23;20061;-89
2021/01/22 10:19:56;;;;;;;208.38;127.18;;;9.60;92.60;;;;;;6161132;23;20068;-89
2021/01/22 10:22:22;;;;;;;204.43;127.20;;;9.40;92.90;;;;;;6135829;23;20340;-83
2021/01/22 10:24:48;;;;;;;191.35;121.50;;;9.50;93.20;;;;;;6164840;23;20005;-85
2021/01/22 10:27:14;;;;;;;188.15;120.80;;;9.70;92.50;;;;;;6137748;23;20002;-84
2021/01/22 10:29:40;;;;;;;196.75;118.63;;;9.80;91.60;;;;;;6157618;23;20020;-80
2021/01/22 10:32:05;;;;;;;189.23;117.78;;;9.90;91.90;;;;;;6130338;23;20011;-83
2021/01/22 10:34:31;;;;;;;167.73;106.57;;;9.90;91.60;;;;;;6131067;23;20033;-87
2021/01/22 10:36:57;;;;;;;147.88;94.10;;;9.90;92.10;;;;;;6130447;23;20006;-82
2021/01/22 10:39:22;;;;;;;133.02;85.57;;;9.60;93.20;;;;;;6158230;23;20009;-81
2021/01/22 10:41:48;;;;;;;134.70;85.10;;;9.50;93.90;;;;;;6156691;23;20001;-80
2021/01/22 10:44:14;;;;;;;133.88;86.90;;;9.60;93.90;;;;;;6156068;23;20140;-81
2021/01/22 10:46:40;;;;;;;149.45;94.38;;;9.50;94.10;;;;;;6129418;23;20476;-80
2021/01/22 10:49:06;;;;;;;140.90;90.60;;;9.60;94.10;;;;;;6156823;23;20010;-84
2021/01/22 10:51:31;;;;;;;135.07;84.25;;;9.60;94.40;;;;;;6131703;23;20049;-83
2021/01/22 10:53:59;;;;;;;123.45;74.43;;;9.70;94.50;;;;;;6131282;23;20005;-82
2021/01/22 10:56:25;;;;;;;114.60;70.35;;;9.60;95.20;;;;;;6153453;23;20001;-83
2021/01/22 10:58:52;;;;;;;106.70;66.35;;;9.60;95.50;;;;;;6128945;23;20017;-81
2021/01/22 11:01:18;;;;;;;94.50;58.72;;;9.70;95.60;;;;;;6129658;23;20439;-82
2021/01/22 11:03:44;;;;;;;92.47;56.88;;;9.70;96.10;;;;;;6130136;23;20005;-80
2021/01/22 11:09:43;;;;;;;88.57;56.25;;;9.70;96.50;;;;;;6156701;23;20032;-89
2021/01/22 11:12:09;;;;;;;103.63;60.40;;;9.90;95.80;;;;;;6155522;23;20005;-83
2021/01/22 11:14:35;;;;;;;98.53;60.08;;;9.90;95.60;;;;;;6131144;23;20148;-82
2021/01/22 11:17:06;;;;;;;97.47;60.70;;;9.90;95.90;;;;;;6157849;23;20001;-84
2021/01/22 11:19:34;;;;;;;98.18;59.13;;;10.00;96.10;;;;;;6131820;23;20005;-86
2021/01/22 11:22:00;;;;;;;90.80;56.33;;;10.10;95.60;;;;;;6130500;23;20293;-84
2021/01/22 11:24:25;;;;;;;86.93;53.92;;;10.10;95.90;;;;;;6158968;23;20562;-90
2021/01/22 11:26:55;;;;;;;82.75;51.78;;;9.90;96.30;;;;;;6130079;23;20088;-83
2021/01/22 11:29:20;;;;;;;74.70;47.08;;;10.00;96.80;;;;;;6157584;23;20036;-87
2021/01/22 11:31:46;;;;;;;78.28;44.22;;;10.20;96.90;;;;;;6155715;23;20005;-90
2021/01/22 11:34:12;;;;;;;71.90;42.40;;;10.40;96.40;;;;;;6130628;23;20015;-90
2021/01/22 11:36:38;;;;;;;65.22;39.65;;;10.90;95.20;;;;;;6130508;23;20016;-84
2021/01/22 11:39:22;;;;;;;59.03;36.97;;;11.30;94.10;;;;;;6130352;23;20009;-85
2021/01/22 11:41:49;;;;;;;55.03;35.58;;;11.20;93.30;;;;;;6132111;23;20001;-86
2021/01/22 11:44:15;;;;;;;54.05;34.35;;;11.10;93.50;;;;;;6131820;23;20033;-85
2021/01/22 11:46:40;;;;;;;63.28;35.88;;;10.90;94.20;;;;;;6157443;23;20024;-84
2021/01/22 11:49:10;;;;;;;67.45;41.10;;;10.80;94.60;;;;;;6131037;23;20013;-83
2021/01/22 11:51:39;;;;;;;69.90;41.05;;;10.50;95.50;;;;;;6156181;23;20022;-85
2021/01/22 11:54:05;;;;;;;69.25;43.95;;;10.30;96.30;;;;;;6130199;23;20005;-83
2021/01/22 11:56:32;;;;;;;62.53;39.72;;;10.30;96.30;;;;;;6130497;23;20121;-86
2021/01/22 11:58:58;;;;;;;62.97;37.20;;;9.90;97.60;;;;;;6131221;23;20013;-83
2021/01/22 12:01:43;;;;;;;67.75;40.10;;;9.70;98.80;;;;;;6130242;23;20331;-83
2021/01/22 12:04:09;;;;;;;64.13;40.17;;;9.40;99.70;;;;;;6130704;23;20001;-84
2021/01/22 12:06:35;;;;;;;63.83;38.85;;;9.70;99.50;;;;;;6131182;23;20014;-84
2021/01/22 12:09:13;;;;;;;54.60;34.90;;;9.90;99.40;;;;;;6131250;23;20018;-83
2021/01/22 12:11:39;;;;;;;47.88;29.48;;;10.00;99.40;;;;;;6158081;23;20001;-84
2021/01/22 12:14:05;;;;;;;50.25;32.40;;;9.80;99.90;;;;;;6156746;23;20022;-87
2021/01/22 12:16:33;;;;;;;59.55;33.20;;;9.90;99.90;;;;;;6106148;23;20036;-87
2021/01/22 12:18:59;;;;;;;52.65;32.38;;;9.80;99.90;;;;;;6128804;23;20033;-85
2021/01/22 12:22:10;;;;;;;56.58;31.52;;;9.60;99.90;;;;;;6155261;23;20067;-87
2021/01/22 12:24:36;;;;;;;57.72;31.30;;;9.50;99.90;;;;;;6122382;23;20005;-86
2021/01/22 12:27:01;;;;;;;50.00;31.85;;;9.70;99.90;;;;;;6155777;23;20005;-86
2021/01/22 12:29:33;;;;;;;53.58;30.35;;;9.80;99.90;;;;;;6155649;23;20026;-85
2021/01/22 12:32:05;;;;;;;49.38;28.38;;;9.90;99.90;;;;;;6125681;23;20080;-82
2021/01/22 12:34:30;;;;;;;46.17;28.00;;;9.80;99.90;;;;;;6127330;23;20001;-81
2021/01/22 12:37:02;;;;;;;50.65;29.80;;;9.50;99.90;;;;;;6133011;23;20005;-83
2021/01/22 12:39:28;;;;;;;55.72;29.15;;;9.40;99.90;;;;;;6128168;23;20013;-88
2021/01/22 12:41:55;;;;;;;48.13;31.08;;;9.40;99.90;;;;;;6101774;23;20460;-85
2021/01/22 12:44:20;;;;;;;48.65;27.20;;;9.20;99.90;;;;;;6125533;23;20016;-83
2021/01/22 12:46:46;;;;;;;39.17;24.95;;;9.20;99.90;;;;;;6125101;23;20018;-82
2021/01/22 12:49:12;;;;;;;36.38;23.30;;;9.10;99.90;;;;;;6098943;23;20455;-85
2021/01/22 12:51:37;;;;;;;39.20;24.00;;;9.00;99.90;;;;;;6094410;23;20054;-82
2021/01/22 12:54:03;;;;;;;37.47;22.88;;;9.10;99.90;;;;;;6096265;23;20018;-86
2021/01/22 12:56:29;;;;;;;39.45;23.13;;;9.20;99.90;;;;;;6095244;23;20082;-82